Enter the Airport ICAO Code

Search by Airport or City

Current Weather

GCTS | Tenerife-South Airport (Reina Sofia Airport)

Tenerife, Canary Islands, Spain

Last Update 29 Minutes Ago

Sky with Few Clouds

Temperature of 16 ºC

Light to Moderate Winds from North

Temperature

16 ºC

Dew Point Temperature

09 ºC

Relative Humidity

63.3 %

Wind Direction

North (350º, Without Significant Variations)

Wind Velocity

9 km/h (05 kt)

Gusts

None

Visibility

Greater than 10 Kilometers

Sea Level Pressure

1012 hPa (Hectopascals)

Layers of Clouds

5% to 30% of Sky Covered from 762 mts (2500 ft) Above Ground Level.

METAR GCTS 160730Z 35005KT 9999 FEW025 16/09 Q1012 NOSIG

Weather Forecast

GCTS | Tenerife-South Airport (Reina Sofia Airport)

Tenerife, Canary Islands, Spain

Forecast valid for the next 19 Hours

From now on it is expected:

Sky with Few Clouds

Light to Moderate Winds from North

In 2 to 4 hours it is expected the begining of:

Moderate Winds from SouthEast

In 10 to 12 hours it is expected the begining of:

Light to Moderate Winds from NorthWest

Maximum Temperature

22 ºC in 6 Hours

Minimum Temperature

16 ºC in -2 Hours

TAF GCTS 160505Z 1605/1703 35006KT 9999 FEW025 TX22/1614Z TN16/1606Z TEMPO 1605/1607 29016KT BECMG 1610/1612 12010KT BECMG 1618/1620 31005KT